RYR420 LROP-LRTR
Flight info
| Callsign | RYR420 |
|---|---|
| Flight time | 0h 44m |
| Altitude | 28000 |
| Route | SOKRU DCT ENIMA DCT NEKUL |
| Aircraft | A320/M-SDE3FGHIRWY/LB1 |
Departure
| Time | 2026-05-08 19:11 |
|---|---|
| Airport | Bucharest Henri Coandă International Airport (LROP) |
Arrival
| Time | 2026-05-08 19:56 |
|---|---|
| Airport | Timișoara Traian Vuia International Airport (LRTR) |
| Time | Latitude | Longitude | Altitude | Speed | Heading |
|---|---|---|---|---|---|
| 2026-05-08 18:39 | 44.56928 | 26.09398 | 323 ft | 0 kts | 174° |
| 2026-05-08 19:01 | 44.56929 | 26.09398 | 322 ft | 0 kts | 174° |
| 2026-05-08 19:01 | 44.56919 | 26.09400 | 322 ft | 2 kts | 174° |
| 2026-05-08 19:01 | 44.56908 | 26.09401 | 322 ft | 1 kts | 174° |
| 2026-05-08 19:02 | 44.56891 | 26.09392 | 322 ft | 5 kts | 218° |
| 2026-05-08 19:02 | 44.56880 | 26.09311 | 322 ft | 12 kts | 269° |
| 2026-05-08 19:02 | 44.56863 | 26.09165 | 322 ft | 18 kts | 261° |
| 2026-05-08 19:02 | 44.56845 | 26.08958 | 322 ft | 24 kts | 263° |
| 2026-05-08 19:03 | 44.56826 | 26.08699 | 322 ft | 18 kts | 264° |
| 2026-05-08 19:03 | 44.56823 | 26.08655 | 322 ft | 7 kts | 264° |
| 2026-05-08 19:03 | 44.56840 | 26.08570 | 321 ft | 12 kts | 323° |
| 2026-05-08 19:03 | 44.56872 | 26.08556 | 322 ft | 0 kts | 348° |
| 2026-05-08 19:04 | 44.56893 | 26.08551 | 322 ft | 6 kts | 352° |
| 2026-05-08 19:04 | 44.56959 | 26.08545 | 321 ft | 13 kts | 358° |
| 2026-05-08 19:05 | 44.57068 | 26.08530 | 322 ft | 19 kts | 352° |
| 2026-05-08 19:05 | 44.57217 | 26.08506 | 322 ft | 25 kts | 354° |
| 2026-05-08 19:05 | 44.57404 | 26.08480 | 322 ft | 23 kts | 354° |
| 2026-05-08 19:05 | 44.57445 | 26.08474 | 323 ft | 4 kts | 355° |
| 2026-05-08 19:06 | 44.57468 | 26.08470 | 323 ft | 3 kts | 353° |
| 2026-05-08 19:06 | 44.57498 | 26.08466 | 323 ft | 4 kts | 353° |
| 2026-05-08 19:06 | 44.57521 | 26.08462 | 306 ft | 3 kts | 353° |
| 2026-05-08 19:06 | 44.57539 | 26.08459 | 323 ft | 5 kts | 353° |
| 2026-05-08 19:07 | 44.57612 | 26.08452 | 323 ft | 11 kts | 8° |
| 2026-05-08 19:07 | 44.57664 | 26.08504 | 324 ft | 8 kts | 63° |
| 2026-05-08 19:07 | 44.57672 | 26.08570 | 324 ft | 6 kts | 83° |
| 2026-05-08 19:07 | 44.57673 | 26.08581 | 324 ft | 0 kts | 83° |
| 2026-05-08 19:10 | 44.57674 | 26.08594 | 324 ft | 13 kts | 83° |
| 2026-05-08 19:10 | 44.57710 | 26.09102 | 322 ft | 87 kts | 84° |
| 2026-05-08 19:10 | 44.57796 | 26.10231 | 324 ft | 143 kts | 84° |
| 2026-05-08 19:11 | 44.57896 | 26.11784 | 575 ft | 166 kts | 86° |
| 2026-05-08 19:11 | 44.58005 | 26.13442 | 1079 ft | 178 kts | 86° |
| 2026-05-08 19:11 | 44.58130 | 26.15263 | 1511 ft | 196 kts | 85° |
| 2026-05-08 19:11 | 44.58278 | 26.17272 | 1902 ft | 217 kts | 85° |
| 2026-05-08 19:12 | 44.58767 | 26.19393 | 2269 ft | 245 kts | 57° |
| 2026-05-08 19:12 | 44.60123 | 26.20926 | 2654 ft | 263 kts | 19° |
| 2026-05-08 19:12 | 44.61958 | 26.21148 | 3516 ft | 269 kts | 353° |
| 2026-05-08 19:12 | 44.63708 | 26.20356 | 4450 ft | 271 kts | 330° |
| 2026-05-08 19:13 | 44.65122 | 26.18620 | 5363 ft | 273 kts | 306° |
| 2026-05-08 19:13 | 44.65953 | 26.16217 | 6252 ft | 277 kts | 291° |
| 2026-05-08 19:13 | 44.66622 | 26.13657 | 7060 ft | 281 kts | 290° |
| 2026-05-08 19:13 | 44.67293 | 26.11062 | 7866 ft | 285 kts | 290° |
| 2026-05-08 19:14 | 44.67975 | 26.08427 | 8682 ft | 289 kts | 290° |
| 2026-05-08 19:14 | 44.68663 | 26.05766 | 9507 ft | 292 kts | 290° |
| 2026-05-08 19:14 | 44.69362 | 26.03064 | 10246 ft | 298 kts | 290° |
| 2026-05-08 19:14 | 44.70101 | 26.00218 | 10491 ft | 321 kts | 289° |
| 2026-05-08 19:15 | 44.70886 | 25.97192 | 10944 ft | 335 kts | 289° |
| 2026-05-08 19:15 | 44.71691 | 25.94095 | 11638 ft | 339 kts | 289° |
| 2026-05-08 19:15 | 44.72502 | 25.90962 | 12356 ft | 343 kts | 289° |
| 2026-05-08 19:15 | 44.73321 | 25.87785 | 13065 ft | 347 kts | 288° |
| 2026-05-08 19:16 | 44.74149 | 25.84575 | 13769 ft | 352 kts | 288° |
| 2026-05-08 19:16 | 44.74988 | 25.81322 | 14397 ft | 355 kts | 288° |
| 2026-05-08 19:16 | 44.75836 | 25.78037 | 15030 ft | 359 kts | 288° |
| 2026-05-08 19:16 | 44.76693 | 25.74722 | 15662 ft | 362 kts | 288° |
| 2026-05-08 19:17 | 44.77265 | 25.72514 | 16065 ft | 364 kts | 288° |
| 2026-05-08 19:17 | 44.78133 | 25.69153 | 16696 ft | 367 kts | 288° |
| 2026-05-08 19:17 | 44.79006 | 25.65765 | 17316 ft | 370 kts | 288° |
| 2026-05-08 19:17 | 44.79884 | 25.62343 | 17929 ft | 373 kts | 288° |
| 2026-05-08 19:18 | 44.80768 | 25.58885 | 18503 ft | 376 kts | 288° |
| 2026-05-08 19:18 | 44.81657 | 25.55410 | 19046 ft | 379 kts | 288° |
| 2026-05-08 19:18 | 44.82550 | 25.51903 | 19595 ft | 381 kts | 288° |
| 2026-05-08 19:18 | 44.83448 | 25.48378 | 20145 ft | 384 kts | 288° |
| 2026-05-08 19:19 | 44.84351 | 25.44833 | 20693 ft | 386 kts | 288° |
| 2026-05-08 19:19 | 44.85256 | 25.41260 | 21244 ft | 388 kts | 288° |
| 2026-05-08 19:19 | 44.86165 | 25.37662 | 21790 ft | 391 kts | 288° |
| 2026-05-08 19:19 | 44.87080 | 25.34044 | 22334 ft | 393 kts | 288° |
| 2026-05-08 19:20 | 44.87999 | 25.30403 | 22879 ft | 395 kts | 288° |
| 2026-05-08 19:20 | 44.88609 | 25.27980 | 23225 ft | 397 kts | 288° |
| 2026-05-08 19:20 | 44.89851 | 25.23049 | 23872 ft | 400 kts | 289° |
| 2026-05-08 19:20 | 44.90784 | 25.19340 | 24298 ft | 403 kts | 288° |
| 2026-05-08 19:21 | 44.91722 | 25.15599 | 24708 ft | 406 kts | 288° |
| 2026-05-08 19:21 | 44.92664 | 25.11833 | 25098 ft | 408 kts | 288° |
| 2026-05-08 19:21 | 44.93612 | 25.08043 | 25484 ft | 411 kts | 288° |
| 2026-05-08 19:21 | 44.94562 | 25.04234 | 25874 ft | 413 kts | 288° |
| 2026-05-08 19:22 | 44.95519 | 25.00401 | 26255 ft | 416 kts | 288° |
| 2026-05-08 19:22 | 44.96480 | 24.96540 | 26626 ft | 418 kts | 288° |
| 2026-05-08 19:22 | 44.97432 | 24.92709 | 26982 ft | 420 kts | 288° |
| 2026-05-08 19:22 | 44.98402 | 24.88799 | 27336 ft | 422 kts | 288° |
| 2026-05-08 19:23 | 44.99376 | 24.84877 | 27691 ft | 425 kts | 288° |
| 2026-05-08 19:23 | 45.00355 | 24.80931 | 27964 ft | 426 kts | 288° |
| 2026-05-08 19:23 | 45.01326 | 24.77016 | 28013 ft | 415 kts | 288° |
| 2026-05-08 19:23 | 45.02260 | 24.73238 | 28023 ft | 401 kts | 288° |
| 2026-05-08 19:24 | 45.03172 | 24.69533 | 28024 ft | 397 kts | 288° |
| 2026-05-08 19:24 | 45.04970 | 24.62182 | 28024 ft | 395 kts | 288° |
| 2026-05-08 19:25 | 45.06765 | 24.54829 | 28018 ft | 395 kts | 288° |
| 2026-05-08 19:25 | 45.08552 | 24.47492 | 28031 ft | 395 kts | 288° |
| 2026-05-08 19:26 | 45.10340 | 24.40151 | 28027 ft | 394 kts | 288° |
| 2026-05-08 19:26 | 45.12117 | 24.32826 | 28031 ft | 394 kts | 288° |
| 2026-05-08 19:27 | 45.13891 | 24.25487 | 28029 ft | 394 kts | 288° |
| 2026-05-08 19:27 | 45.15659 | 24.18143 | 28035 ft | 394 kts | 288° |
| 2026-05-08 19:28 | 45.17415 | 24.10798 | 28040 ft | 393 kts | 287° |
| 2026-05-08 19:28 | 45.19165 | 24.03459 | 28047 ft | 393 kts | 287° |
| 2026-05-08 19:29 | 45.20913 | 23.96124 | 28044 ft | 392 kts | 287° |
| 2026-05-08 19:29 | 45.22647 | 23.88829 | 28045 ft | 392 kts | 287° |
| 2026-05-08 19:30 | 45.24383 | 23.81491 | 28046 ft | 392 kts | 287° |
| 2026-05-08 19:30 | 45.26118 | 23.74153 | 28054 ft | 392 kts | 287° |
| 2026-05-08 19:31 | 45.27843 | 23.66814 | 28053 ft | 392 kts | 287° |
| 2026-05-08 19:31 | 45.29555 | 23.59509 | 27882 ft | 384 kts | 287° |
| 2026-05-08 19:31 | 45.30391 | 23.55938 | 27533 ft | 379 kts | 287° |
| 2026-05-08 19:32 | 45.31221 | 23.52382 | 27277 ft | 379 kts | 287° |
| 2026-05-08 19:32 | 45.32047 | 23.48846 | 26964 ft | 377 kts | 287° |
| 2026-05-08 19:32 | 45.32868 | 23.45324 | 26522 ft | 374 kts | 287° |
| 2026-05-08 19:32 | 45.33683 | 23.41822 | 26060 ft | 372 kts | 287° |
| 2026-05-08 19:33 | 45.34494 | 23.38329 | 25606 ft | 370 kts | 287° |
| 2026-05-08 19:33 | 45.35300 | 23.34854 | 25171 ft | 369 kts | 287° |
| 2026-05-08 19:33 | 45.36100 | 23.31393 | 24715 ft | 367 kts | 287° |
| 2026-05-08 19:33 | 45.36887 | 23.27989 | 24274 ft | 366 kts | 287° |
| 2026-05-08 19:34 | 45.37677 | 23.24564 | 23837 ft | 364 kts | 287° |
| 2026-05-08 19:34 | 45.38462 | 23.21142 | 23388 ft | 363 kts | 287° |
| 2026-05-08 19:34 | 45.39242 | 23.17732 | 22921 ft | 361 kts | 287° |
| 2026-05-08 19:34 | 45.40013 | 23.14363 | 22264 ft | 356 kts | 287° |
| 2026-05-08 19:35 | 45.40777 | 23.11031 | 21526 ft | 353 kts | 287° |
| 2026-05-08 19:35 | 45.41533 | 23.07731 | 20827 ft | 349 kts | 287° |
| 2026-05-08 19:35 | 45.42280 | 23.04466 | 20149 ft | 345 kts | 287° |
| 2026-05-08 19:35 | 45.43017 | 23.01240 | 19482 ft | 342 kts | 287° |
| 2026-05-08 19:36 | 45.43746 | 22.98036 | 18829 ft | 338 kts | 287° |
| 2026-05-08 19:36 | 45.44467 | 22.94863 | 18166 ft | 335 kts | 287° |
| 2026-05-08 19:36 | 45.45181 | 22.91718 | 17466 ft | 332 kts | 287° |
| 2026-05-08 19:36 | 45.45884 | 22.88617 | 16822 ft | 327 kts | 287° |
| 2026-05-08 19:37 | 45.46576 | 22.85553 | 16172 ft | 323 kts | 287° |
| 2026-05-08 19:37 | 45.47263 | 22.82519 | 15552 ft | 320 kts | 287° |
| 2026-05-08 19:37 | 45.47938 | 22.79518 | 14937 ft | 317 kts | 287° |
| 2026-05-08 19:37 | 45.48593 | 22.76604 | 14735 ft | 299 kts | 287° |
| 2026-05-08 19:38 | 45.49210 | 22.73863 | 14584 ft | 283 kts | 286° |
| 2026-05-08 19:38 | 45.49802 | 22.71234 | 14204 ft | 276 kts | 286° |
| 2026-05-08 19:38 | 45.50384 | 22.68644 | 13744 ft | 273 kts | 286° |
| 2026-05-08 19:38 | 45.50959 | 22.66078 | 13222 ft | 271 kts | 286° |
| 2026-05-08 19:39 | 45.51527 | 22.63534 | 12713 ft | 268 kts | 287° |
| 2026-05-08 19:39 | 45.52092 | 22.61010 | 12214 ft | 266 kts | 287° |
| 2026-05-08 19:39 | 45.52650 | 22.58511 | 12052 ft | 265 kts | 287° |
| 2026-05-08 19:39 | 45.53205 | 22.56016 | 11933 ft | 263 kts | 287° |
| 2026-05-08 19:40 | 45.53758 | 22.53529 | 11426 ft | 262 kts | 287° |
| 2026-05-08 19:40 | 45.54300 | 22.51096 | 10916 ft | 260 kts | 287° |
| 2026-05-08 19:40 | 45.54853 | 22.48615 | 10435 ft | 259 kts | 287° |
| 2026-05-08 19:40 | 45.55389 | 22.46206 | 10106 ft | 259 kts | 287° |
| 2026-05-08 19:41 | 45.55937 | 22.43742 | 9675 ft | 262 kts | 287° |
| 2026-05-08 19:41 | 45.56491 | 22.41251 | 9229 ft | 265 kts | 287° |
| 2026-05-08 19:41 | 45.57039 | 22.38776 | 9034 ft | 258 kts | 287° |
| 2026-05-08 19:41 | 45.57572 | 22.36366 | 8897 ft | 252 kts | 287° |
| 2026-05-08 19:42 | 45.58098 | 22.33983 | 8768 ft | 251 kts | 287° |
| 2026-05-08 19:42 | 45.58621 | 22.31614 | 8641 ft | 250 kts | 287° |
| 2026-05-08 19:42 | 45.59142 | 22.29247 | 8509 ft | 250 kts | 287° |
| 2026-05-08 19:42 | 45.59662 | 22.26881 | 8387 ft | 249 kts | 287° |
| 2026-05-08 19:43 | 45.60180 | 22.24519 | 8255 ft | 249 kts | 287° |
| 2026-05-08 19:43 | 45.60697 | 22.22158 | 8125 ft | 249 kts | 287° |
| 2026-05-08 19:43 | 45.61213 | 22.19800 | 7998 ft | 249 kts | 287° |
| 2026-05-08 19:43 | 45.61730 | 22.17441 | 7875 ft | 249 kts | 287° |
| 2026-05-08 19:44 | 45.62248 | 22.15087 | 7752 ft | 249 kts | 287° |
| 2026-05-08 19:44 | 45.62768 | 22.12729 | 7628 ft | 248 kts | 287° |
| 2026-05-08 19:44 | 45.63284 | 22.10374 | 7505 ft | 248 kts | 287° |
| 2026-05-08 19:44 | 45.63798 | 22.08024 | 7373 ft | 248 kts | 287° |
| 2026-05-08 19:45 | 45.64312 | 22.05672 | 7264 ft | 248 kts | 287° |
| 2026-05-08 19:45 | 45.64824 | 22.03322 | 7128 ft | 247 kts | 287° |
| 2026-05-08 19:45 | 45.65332 | 22.00983 | 7016 ft | 245 kts | 287° |
| 2026-05-08 19:45 | 45.65834 | 21.98662 | 6898 ft | 244 kts | 287° |
| 2026-05-08 19:46 | 45.66332 | 21.96345 | 6768 ft | 244 kts | 287° |
| 2026-05-08 19:46 | 45.66828 | 21.94031 | 6648 ft | 243 kts | 287° |
| 2026-05-08 19:46 | 45.67823 | 21.89427 | 6405 ft | 241 kts | 287° |
| 2026-05-08 19:47 | 45.68323 | 21.87135 | 6285 ft | 242 kts | 287° |
| 2026-05-08 19:47 | 45.68811 | 21.84882 | 6052 ft | 235 kts | 287° |
| 2026-05-08 19:47 | 45.69281 | 21.82699 | 5719 ft | 224 kts | 287° |
| 2026-05-08 19:47 | 45.69728 | 21.80617 | 5404 ft | 213 kts | 288° |
| 2026-05-08 19:48 | 45.70149 | 21.78651 | 5093 ft | 202 kts | 288° |
| 2026-05-08 19:48 | 45.70548 | 21.76791 | 4786 ft | 186 kts | 288° |
| 2026-05-08 19:48 | 45.70753 | 21.75043 | 4488 ft | 171 kts | 278° |
| 2026-05-08 19:48 | 45.71003 | 21.73454 | 4291 ft | 155 kts | 288° |
| 2026-05-08 19:49 | 45.71323 | 21.72003 | 4249 ft | 152 kts | 290° |
| 2026-05-08 19:49 | 45.71669 | 21.70566 | 4213 ft | 152 kts | 291° |
| 2026-05-08 19:49 | 45.72024 | 21.69143 | 4154 ft | 152 kts | 291° |
| 2026-05-08 19:49 | 45.72384 | 21.67720 | 4089 ft | 152 kts | 291° |
| 2026-05-08 19:50 | 45.72739 | 21.66321 | 4033 ft | 150 kts | 291° |
| 2026-05-08 19:50 | 45.73096 | 21.64920 | 3964 ft | 149 kts | 291° |
| 2026-05-08 19:50 | 45.73446 | 21.63548 | 3901 ft | 149 kts | 292° |
| 2026-05-08 19:50 | 45.73801 | 21.62151 | 3828 ft | 149 kts | 292° |
| 2026-05-08 19:51 | 45.74157 | 21.60755 | 3791 ft | 149 kts | 292° |
| 2026-05-08 19:51 | 45.74512 | 21.59359 | 3672 ft | 150 kts | 292° |
| 2026-05-08 19:51 | 45.74868 | 21.57961 | 3507 ft | 149 kts | 292° |
| 2026-05-08 19:51 | 45.75223 | 21.56564 | 3324 ft | 150 kts | 292° |
| 2026-05-08 19:52 | 45.75578 | 21.55167 | 3119 ft | 149 kts | 292° |
| 2026-05-08 19:52 | 45.75932 | 21.53773 | 2918 ft | 149 kts | 293° |
| 2026-05-08 19:52 | 45.76285 | 21.52381 | 2725 ft | 148 kts | 293° |
| 2026-05-08 19:52 | 45.76637 | 21.50995 | 2531 ft | 148 kts | 293° |
| 2026-05-08 19:53 | 45.76989 | 21.49605 | 2331 ft | 148 kts | 294° |
| 2026-05-08 19:53 | 45.77340 | 21.48220 | 2130 ft | 147 kts | 294° |
| 2026-05-08 19:53 | 45.77690 | 21.46842 | 1940 ft | 147 kts | 294° |
| 2026-05-08 19:53 | 45.78042 | 21.45462 | 1719 ft | 148 kts | 294° |
| 2026-05-08 19:54 | 45.78381 | 21.44076 | 1498 ft | 146 kts | 292° |
| 2026-05-08 19:54 | 45.78706 | 21.42697 | 1323 ft | 146 kts | 292° |
| 2026-05-08 19:54 | 45.79040 | 21.41334 | 1171 ft | 144 kts | 292° |
| 2026-05-08 19:54 | 45.79391 | 21.40000 | 978 ft | 142 kts | 293° |
| 2026-05-08 19:55 | 45.79735 | 21.38682 | 780 ft | 141 kts | 292° |
| 2026-05-08 19:55 | 45.80067 | 21.37388 | 609 ft | 140 kts | 293° |
| 2026-05-08 19:55 | 45.80406 | 21.36089 | 415 ft | 139 kts | 292° |
| 2026-05-08 19:55 | 45.80712 | 21.34873 | 356 ft | 109 kts | 289° |
| 2026-05-08 19:56 | 45.80869 | 21.34236 | 355 ft | 40 kts | 290° |
| 2026-05-08 19:56 | 45.80963 | 21.33880 | 353 ft | 36 kts | 290° |
| 2026-05-08 19:56 | 45.81016 | 21.33652 | 358 ft | 35 kts | 289° |